Martin Challenger — WDB2346 — position and weather

sailwx.info

Track history (hours):
 
Tides and Currents Weather Stations Pressure Air Temp Water Temp Dewpoint Dewpoint Depression Visibility Wind Speed Wind Dir Waves Ship Positions

Martin Challenger

More information available from US FCC via Universal Licensing System and Coast Guard Vessel Documentation Center.

Last reported at 2014-Sep-17 09:33 UTC. Time now 2014-Sep-17 09:39 UTC.
Position N 30°03' W 090°36'.

Length 20 m; draft 2.9 m.

MMSI: 366874920.

Date/timePositionNaut miles runAvg speedWind from/ knotsBaromVisibWave heightAir tempDewpointWater temp
2014-Sep-17 09:33N 30°03' W 090°36'0 0.1
2014-Sep-17 08:33N 30°03' W 090°36'0 0.2
2014-Sep-17 07:34N 30°03' W 090°36'0 0.3
2014-Sep-17 06:33N 30°03' W 090°35'0 0.0
2014-Sep-17 05:33N 30°03' W 090°35'0 0.0
2014-Sep-17 04:33N 30°03' W 090°35'0 0.0
2014-Sep-17 03:33N 30°03' W 090°35'0 0.0
2014-Sep-17 02:33N 30°03' W 090°35'0 0.0
2014-Sep-17 01:33N 30°03' W 090°35'0 0.0
2014-Sep-17 00:33N 30°03' W 090°35'0 0.0
2014-Sep-16 23:33N 30°03' W 090°35'0 0.0
2014-Sep-16 22:33N 30°03' W 090°35'0 0.0
2014-Sep-16 21:31N 30°03' W 090°35'0 0.0
2014-Sep-16 20:32N 30°03' W 090°35'0 0.0
2014-Sep-16 19:33N 30°03' W 090°35'0 0.0
2014-Sep-16 18:30N 30°03' W 090°35'0 0.3
2014-Sep-16 17:27N 30°03' W 090°36'0 0.3
2014-Sep-16 16:27N 30°03' W 090°35'0 0.0
2014-Sep-16 15:32N 30°03' W 090°35'0 0.0
2014-Sep-16 14:32N 30°03' W 090°35'0 0.0
2014-Sep-16 13:32N 30°03' W 090°35'0 0.3
2014-Sep-16 12:33N 30°03' W 090°36'0 0.3
2014-Sep-16 11:33N 30°03' W 090°35'2 2.0
2014-Sep-16 10:33N 30°03' W 090°33'4 4.1
2014-Sep-16 09:33N 30°02' W 090°28'4 3.9
2014-Sep-16 08:33N 29°59' W 090°25'4 4.4
2014-Sep-16 07:33N 29°56' W 090°21'37 1.1
2014-Sep-14 22:15N 29°34' W 090°56'3 4.6
2014-Sep-14 21:33N 29°36' W 090°58'4 4.1
2014-Sep-14 20:29N 29°37' W 091°03'4 4.2
2014-Sep-14 19:33N 29°39' W 091°07'4 3.7
2014-Sep-14 18:33N 29°41' W 091°11'3 2.8
2014-Sep-14 17:33N 29°40' W 091°14'2 2.4
2014-Sep-14 16:33N 29°39' W 091°16'4 4.1
2014-Sep-14 15:33N 29°39' W 091°21'6 4.3
2014-Sep-14 14:10N 29°41' W 091°28'  
2014-Sep-09 23:33N 29°29' W 094°52'5 5.3
2014-Sep-09 22:33N 29°34' W 094°55'5 5.1
2014-Sep-09 21:33N 29°38' W 094°58'5 5.2
2014-Sep-09 20:33N 29°42' W 095°01'5 0.3
2014-Sep-09 03:15N 29°47' W 095°05'  
Track history (hours):
 
Tides and Currents Weather Stations Pressure Air Temp Water Temp Dewpoint Dewpoint Depression Visibility Wind Speed Wind Dir Waves Ship Positions

Martin Challenger

More information available from US FCC via Universal Licensing System and Coast Guard Vessel Documentation Center.

Last reported at 2014-Sep-17 09:33 UTC. Time now 2014-Sep-17 09:39 UTC.
Position N 30°03' W 090°36'.

Length 20 m; draft 2.9 m.

MMSI: 366874920.

Date/timePositionNaut miles runAvg speedWind from/ knotsBaromVisibWave heightAir tempDewpointWater temp
2014-Sep-17 09:33N 30°03' W 090°36'0 0.1
2014-Sep-17 08:33N 30°03' W 090°36'0 0.2
2014-Sep-17 07:34N 30°03' W 090°36'0 0.3
2014-Sep-17 06:33N 30°03' W 090°35'0 0.0
2014-Sep-17 05:33N 30°03' W 090°35'0 0.0
2014-Sep-17 04:33N 30°03' W 090°35'0 0.0
2014-Sep-17 03:33N 30°03' W 090°35'0 0.0
2014-Sep-17 02:33N 30°03' W 090°35'0 0.0
2014-Sep-17 01:33N 30°03' W 090°35'0 0.0
2014-Sep-17 00:33N 30°03' W 090°35'0 0.0
2014-Sep-16 23:33N 30°03' W 090°35'0 0.0
2014-Sep-16 22:33N 30°03' W 090°35'0 0.0
2014-Sep-16 21:31N 30°03' W 090°35'0 0.0
2014-Sep-16 20:32N 30°03' W 090°35'0 0.0
2014-Sep-16 19:33N 30°03' W 090°35'0 0.0
2014-Sep-16 18:30N 30°03' W 090°35'0 0.3
2014-Sep-16 17:27N 30°03' W 090°36'0 0.3
2014-Sep-16 16:27N 30°03' W 090°35'0 0.0
2014-Sep-16 15:32N 30°03' W 090°35'0 0.0
2014-Sep-16 14:32N 30°03' W 090°35'0 0.0
2014-Sep-16 13:32N 30°03' W 090°35'0 0.3
2014-Sep-16 12:33N 30°03' W 090°36'0 0.3
2014-Sep-16 11:33N 30°03' W 090°35'2 2.0
2014-Sep-16 10:33N 30°03' W 090°33'4 4.1
2014-Sep-16 09:33N 30°02' W 090°28'4 3.9
2014-Sep-16 08:33N 29°59' W 090°25'4 4.4
2014-Sep-16 07:33N 29°56' W 090°21'37 1.1
2014-Sep-14 22:15N 29°34' W 090°56'3 4.6
2014-Sep-14 21:33N 29°36' W 090°58'4 4.1
2014-Sep-14 20:29N 29°37' W 091°03'4 4.2
2014-Sep-14 19:33N 29°39' W 091°07'4 3.7
2014-Sep-14 18:33N 29°41' W 091°11'3 2.8
2014-Sep-14 17:33N 29°40' W 091°14'2 2.4
2014-Sep-14 16:33N 29°39' W 091°16'4 4.1
2014-Sep-14 15:33N 29°39' W 091°21'6 4.3
2014-Sep-14 14:10N 29°41' W 091°28'  
2014-Sep-09 23:33N 29°29' W 094°52'5 5.3
2014-Sep-09 22:33N 29°34' W 094°55'5 5.1
2014-Sep-09 21:33N 29°38' W 094°58'5 5.2
2014-Sep-09 20:33N 29°42' W 095°01'5 0.3
2014-Sep-09 03:15N 29°47' W 095°05'  

Dump ship's entire track history